Time;durP1;ratioP1;P1;durP2;ratioP2;P2;SDS_P1;SDS_P2;PMS_P1;PMS_P2;Temp;Humidity;BMP_temperature;BMP_pressure;BME280_temperature;BME280_humidity;BME280_pressure;Samples;Min_cycle;Max_cycle;Signal;HPM_P1;HPM_P2
2023/07/04 00:01:12;;;;;;;7.55;2.83;;;;;;;16.49;88.61;100992.31;5052402;28;20127;-62
2023/07/04 00:03:41;;;;;;;7.93;3.50;;;;;;;16.47;88.54;100991.00;5053848;28;20041;-62
2023/07/04 00:06:12;;;;;;;6.88;2.75;;;;;;;16.50;89.44;100993.13;5053768;28;20053;-63
2023/07/04 00:08:40;;;;;;;8.27;3.65;;;;;;;16.53;89.16;101003.56;5050079;28;20049;-65
2023/07/04 00:11:09;;;;;;;5.65;2.72;;;;;;;16.50;89.13;100993.97;5036058;28;20057;-64
2023/07/04 00:13:37;;;;;;;6.57;2.85;;;;;;;16.50;89.15;100991.22;5053638;28;20033;-63
2023/07/04 00:16:09;;;;;;;9.48;2.90;;;;;;;16.48;89.70;100987.97;5050926;28;20049;-63
2023/07/04 00:18:37;;;;;;;9.43;2.90;;;;;;;16.51;89.79;100970.84;5052310;28;20402;-64
2023/07/04 00:21:07;;;;;;;7.88;2.53;;;;;;;16.57;89.11;100979.78;5051854;28;20071;-63
2023/07/04 00:23:36;;;;;;;11.57;3.03;;;;;;;16.58;88.93;100987.75;5053669;28;20396;-63
2023/07/04 00:26:06;;;;;;;9.35;3.05;;;;;;;16.59;88.70;100981.13;5050697;28;20045;-62
2023/07/04 00:28:38;;;;;;;9.52;2.83;;;;;;;16.58;89.63;100973.19;5042850;28;20050;-63
2023/07/04 00:31:08;;;;;;;8.07;2.95;;;;;;;16.59;90.16;100964.63;5033172;28;20045;-63
2023/07/04 00:33:36;;;;;;;7.78;2.67;;;;;;;16.64;89.99;100954.63;5016417;28;20052;-63
2023/07/04 00:36:07;;;;;;;12.43;3.13;;;;;;;16.67;89.78;100968.63;5051083;28;20053;-63
2023/07/04 00:38:36;;;;;;;8.75;3.15;;;;;;;16.69;89.36;100958.13;5051022;28;20042;-63
2023/07/04 00:41:14;;;;;;;10.07;2.90;;;;;;;16.71;89.24;100960.56;5038313;28;20120;-63
2023/07/04 00:44:34;;;;;;;9.13;3.08;;;;;;;16.69;89.30;100951.78;5039488;28;20117;-64
2023/07/04 00:47:10;;;;;;;8.93;3.05;;;;;;;16.73;89.60;100958.31;5050722;28;20057;-63
2023/07/04 00:49:43;;;;;;;10.35;3.03;;;;;;;16.76;89.88;100957.69;5057367;28;20045;-63
2023/07/04 00:52:23;;;;;;;8.48;2.83;;;;;;;16.78;89.77;100950.78;5025146;28;20037;-63
2023/07/04 00:54:58;;;;;;;7.32;2.70;;;;;;;16.79;89.90;100946.13;5042933;28;20041;-62
2023/07/04 00:57:33;;;;;;;9.40;2.88;;;;;;;16.78;90.07;100944.44;5041338;28;20040;-63
2023/07/04 01:00:16;;;;;;;9.65;3.30;;;;;;;16.77;90.22;100942.81;5055499;28;20045;-63
2023/07/04 01:02:49;;;;;;;8.75;2.72;;;;;;;16.75;90.77;100942.31;5057736;28;20053;-62
2023/07/04 01:05:36;;;;;;;6.50;2.58;;;;;;;16.73;90.99;100947.31;5039064;28;20045;-62
2023/07/04 01:08:41;;;;;;;8.90;3.05;;;;;;;16.72;90.96;100945.69;5040259;28;20435;-63
2023/07/04 01:11:32;;;;;;;6.97;2.58;;;;;;;16.69;90.91;100952.63;5054928;28;20083;-64
2023/07/04 01:14:05;;;;;;;6.28;2.42;;;;;;;16.68;91.45;100953.72;5058010;28;20098;-63
2023/07/04 01:16:32;;;;;;;5.90;2.40;;;;;;;16.69;90.99;100943.53;5055010;28;20082;-64
2023/07/04 01:19:00;;;;;;;8.70;3.15;;;;;;;16.66;90.91;100935.91;5023339;28;20397;-63
2023/07/04 01:21:30;;;;;;;9.68;3.25;;;;;;;16.65;90.41;100939.78;5040810;28;20387;-64
2023/07/04 01:24:12;;;;;;;10.68;3.22;;;;;;;16.62;90.78;100957.72;5036955;28;20049;-65
2023/07/04 01:26:49;;;;;;;10.00;2.80;;;;;;;16.61;90.72;100958.81;5054883;28;20049;-64
2023/07/04 01:29:18;;;;;;;10.73;3.70;;;;;;;16.59;90.52;100950.84;5056938;28;20057;-64
2023/07/04 01:31:46;;;;;;;10.77;3.40;;;;;;;16.54;91.21;100955.66;5055992;28;20045;-64
2023/07/04 01:34:17;;;;;;;9.73;3.60;;;;;;;16.54;91.23;100952.91;5057790;28;20049;-64
2023/07/04 01:36:44;;;;;;;12.45;3.80;;;;;;;16.53;91.27;100952.09;5056607;28;20171;-64
2023/07/04 01:39:16;;;;;;;11.48;3.70;;;;;;;16.54;91.39;100953.72;5022211;28;20494;-62
2023/07/04 01:41:45;;;;;;;12.43;4.00;;;;;;;16.53;91.78;100960.34;5024609;28;20120;-64
2023/07/04 01:44:16;;;;;;;15.65;4.22;;;;;;;16.54;91.53;100959.22;5022484;28;20057;-63
2023/07/04 01:46:44;;;;;;;12.63;4.43;;;;;;;16.54;91.76;100961.16;5022283;28;20520;-64
2023/07/04 01:49:12;;;;;;;16.27;4.03;;;;;;;16.56;92.10;100965.22;5043521;28;20080;-62
2023/07/04 01:51:41;;;;;;;14.15;4.38;;;;;;;16.58;91.61;100963.00;5041125;28;20092;-63
2023/07/04 01:54:10;;;;;;;19.27;5.63;;;;;;;16.56;91.73;100965.22;5038106;28;20057;-63
2023/07/04 01:56:38;;;;;;;20.33;5.18;;;;;;;16.54;91.85;100978.47;5019937;28;20050;-65
2023/07/04 01:59:07;;;;;;;13.13;4.13;;;;;;;16.47;92.86;100983.56;5049921;28;20080;-65
2023/07/04 02:01:38;;;;;;;16.15;4.53;;;;;;;16.41;93.50;100979.28;5042333;28;20101;-63
2023/07/04 02:04:06;;;;;;;16.90;4.47;;;;;;;16.37;93.80;100972.75;5005173;28;20136;-64
2023/07/04 02:06:34;;;;;;;16.77;4.03;;;;;;;16.34;94.10;100968.69;5020314;28;20053;-64
2023/07/04 02:09:02;;;;;;;19.90;4.82;;;;;;;16.33;94.96;100971.72;5037491;28;20502;-62
2023/07/04 02:11:30;;;;;;;11.60;4.10;;;;;;;16.35;94.82;100963.97;5035471;28;20064;-65
2023/07/04 02:14:00;;;;;;;13.88;4.38;;;;;;;16.36;95.22;100954.63;5037398;28;20091;-62
2023/07/04 02:16:28;;;;;;;13.13;4.15;;;;;;;16.39;95.10;100962.28;5038861;28;20162;-64
2023/07/04 02:18:56;;;;;;;12.75;3.83;;;;;;;16.42;94.91;100964.41;5038123;28;20047;-64
2023/07/04 02:21:26;;;;;;;13.73;4.15;;;;;;;16.45;95.00;100965.72;5041218;28;20041;-63
2023/07/04 02:23:54;;;;;;;14.00;4.00;;;;;;;16.44;95.29;100970.41;5035900;28;20402;-62
2023/07/04 02:26:22;;;;;;;19.40;4.32;;;;;;;16.43;95.48;100974.31;5035451;28;20065;-62
2023/07/04 02:28:51;;;;;;;14.20;4.35;;;;;;;16.41;95.87;100979.28;5035082;28;20072;-63
2023/07/04 02:31:20;;;;;;;14.80;4.30;;;;;;;16.40;97.12;100988.63;5051545;28;20497;-64
2023/07/04 02:33:48;;;;;;;14.35;4.32;;;;;;;16.36;97.26;100985.69;5054997;28;20412;-63
2023/07/04 02:36:15;;;;;;;15.07;4.18;;;;;;;16.34;96.63;100978.88;5052550;28;20131;-62
2023/07/04 02:38:44;;;;;;;15.52;4.05;;;;;;;16.35;97.05;100980.47;5021389;28;20051;-64
2023/07/04 02:41:12;;;;;;;12.95;4.10;;;;;;;16.37;97.16;100964.50;5044060;28;20057;-63
2023/07/04 02:43:41;;;;;;;14.73;3.92;;;;;;;16.40;96.90;100972.13;5033992;28;20053;-63
2023/07/04 02:46:10;;;;;;;12.68;4.30;;;;;;;16.44;96.47;100964.91;5017976;28;20424;-62
2023/07/04 02:48:43;;;;;;;13.40;4.10;;;;;;;16.45;95.73;100958.31;5019034;28;20057;-63
2023/07/04 02:51:11;;;;;;;15.93;4.47;;;;;;;16.45;93.67;100960.22;5036706;28;20045;-63
2023/07/04 02:53:40;;;;;;;12.70;3.97;;;;;;;16.38;93.86;100950.47;5033767;28;20069;-61
2023/07/04 02:56:10;;;;;;;14.23;4.20;;;;;;;16.38;93.42;100944.16;5052021;28;20102;-65
2023/07/04 02:58:39;;;;;;;12.38;3.97;;;;;;;16.34;92.98;100951.38;5037952;28;20048;-63
2023/07/04 03:01:07;;;;;;;10.35;3.83;;;;;;;16.30;92.98;100950.34;5040570;28;20190;-63
2023/07/04 03:03:37;;;;;;;15.73;4.97;;;;;;;16.32;93.41;100950.84;5034651;28;20053;-63
2023/07/04 03:06:06;;;;;;;17.27;3.97;;;;;;;16.32;93.50;100948.91;5029232;28;20060;-62
2023/07/04 03:08:35;;;;;;;13.93;4.30;;;;;;;16.33;93.73;100950.56;5050054;28;20100;-64
2023/07/04 03:11:04;;;;;;;16.05;4.10;;;;;;;16.32;94.42;100953.59;5033819;28;20494;-63
2023/07/04 03:13:35;;;;;;;13.85;4.32;;;;;;;16.32;94.63;100956.34;5048656;28;20052;-63
2023/07/04 03:16:04;;;;;;;15.00;4.50;;;;;;;16.32;95.20;100965.41;5049335;28;20041;-63
2023/07/04 03:18:33;;;;;;;13.73;4.80;;;;;;;16.32;96.03;100959.09;5067900;28;20071;-62
2023/07/04 03:21:02;;;;;;;17.33;4.57;;;;;;;16.31;95.77;100954.72;5060897;28;20101;-63
2023/07/04 03:23:30;;;;;;;15.85;4.88;;;;;;;16.29;96.80;100956.97;5056245;28;20052;-62
2023/07/04 03:25:58;;;;;;;13.23;4.05;;;;;;;16.27;97.19;100964.69;5052587;28;20081;-64
2023/07/04 03:28:26;;;;;;;14.50;4.32;;;;;;;16.27;97.41;100953.69;5018203;28;20045;-64
2023/07/04 03:30:54;;;;;;;14.63;4.30;;;;;;;16.27;97.44;100957.25;5032271;28;20077;-62
2023/07/04 03:33:24;;;;;;;14.63;4.35;;;;;;;16.27;97.18;100962.75;5053795;28;20056;-64
2023/07/04 03:35:52;;;;;;;14.68;4.32;;;;;;;16.28;97.10;100963.56;5053183;28;20041;-64
2023/07/04 03:38:28;;;;;;;16.45;4.10;;;;;;;16.24;97.16;100957.88;5052584;28;20045;-63
2023/07/04 03:40:56;;;;;;;15.68;4.43;;;;;;;16.25;97.62;100964.19;5037189;28;20049;-64
2023/07/04 03:43:25;;;;;;;13.07;4.00;;;;;;;16.24;97.47;100963.38;5039157;28;20058;-63
2023/07/04 03:45:53;;;;;;;14.60;4.40;;;;;;;16.26;97.18;100965.78;5032990;28;20041;-64
2023/07/04 03:48:23;;;;;;;16.95;4.47;;;;;;;16.25;97.27;100967.75;5049402;28;20559;-64
2023/07/04 03:50:51;;;;;;;15.05;4.53;;;;;;;16.23;97.43;100966.41;5034137;28;20048;-64
2023/07/04 03:53:19;;;;;;;13.75;4.57;;;;;;;16.21;97.59;100966.72;5032600;28;20061;-64
2023/07/04 03:55:49;;;;;;;14.32;3.90;;;;;;;16.15;97.61;100966.00;5032520;28;20049;-64
2023/07/04 03:58:18;;;;;;;13.15;3.90;;;;;;;16.14;97.87;100969.06;5000164;28;20053;-63
2023/07/04 04:00:47;;;;;;;16.05;4.72;;;;;;;16.09;98.21;100972.72;5018514;28;20041;-62
2023/07/04 04:03:14;;;;;;;13.27;3.80;;;;;;;16.07;97.97;100979.63;5033651;28;20057;-64
2023/07/04 04:05:43;;;;;;;12.45;4.28;;;;;;;16.08;98.55;100981.25;5034037;28;20053;-63
2023/07/04 04:08:11;;;;;;;15.55;3.95;;;;;;;16.10;98.57;100984.50;5032942;28;20055;-63
2023/07/04 04:10:39;;;;;;;17.17;3.90;;;;;;;16.11;98.13;100986.13;5048663;28;20101;-65
2023/07/04 04:13:06;;;;;;;13.90;4.10;;;;;;;16.12;97.89;100983.09;5047129;28;20044;-64
2023/07/04 04:15:34;;;;;;;16.15;4.53;;;;;;;16.09;97.70;100978.22;5053757;28;20075;-63
2023/07/04 04:18:02;;;;;;;16.92;4.97;;;;;;;16.06;98.33;100981.53;5054081;28;20041;-65
2023/07/04 04:20:30;;;;;;;15.05;5.35;;;;;;;16.00;99.13;100969.00;5054014;28;20057;-65
2023/07/04 04:22:58;;;;;;;20.63;5.55;;;;;;;15.97;99.50;100975.94;5051577;28;20044;-64
2023/07/04 04:25:26;;;;;;;18.83;5.38;;;;;;;15.94;99.44;100982.00;5056542;28;20041;-64
2023/07/04 04:27:54;;;;;;;16.05;4.72;;;;;;;15.92;99.84;100983.44;5057850;28;20111;-65
2023/07/04 04:30:22;;;;;;;16.42;4.95;;;;;;;15.96;99.80;100978.97;5050401;28;20057;-65
2023/07/04 04:32:50;;;;;;;16.35;4.22;;;;;;;16.03;99.11;100978.59;5057375;28;20128;-64
2023/07/04 04:35:19;;;;;;;17.58;4.28;;;;;;;16.09;99.11;100994.69;5060828;28;20060;-64
2023/07/04 04:37:47;;;;;;;10.63;3.45;;;;;;;16.14;98.34;100986.38;5056024;28;20052;-64
2023/07/04 04:40:15;;;;;;;14.05;4.07;;;;;;;16.17;98.29;100995.94;5056066;28;20060;-65
2023/07/04 04:42:43;;;;;;;13.02;3.95;;;;;;;16.21;98.66;100990.63;5024317;28;20053;-62
2023/07/04 04:45:14;;;;;;;13.48;4.20;;;;;;;16.21;98.40;101001.63;5037491;28;20041;-63
2023/07/04 04:47:52;;;;;;;11.13;3.65;;;;;;;16.22;98.03;101006.03;5042100;28;20045;-65
2023/07/04 04:50:22;;;;;;;15.15;4.45;;;;;;;16.23;98.45;101004.91;5060182;28;20052;-66
2023/07/04 04:52:50;;;;;;;17.63;4.72;;;;;;;16.23;98.88;100994.72;5045521;28;20041;-62
2023/07/04 04:55:18;;;;;;;17.95;4.85;;;;;;;16.23;99.45;101004.91;5033434;28;20063;-65
2023/07/04 04:57:46;;;;;;;18.75;5.18;;;;;;;16.23;100.00;101002.16;5042339;28;20131;-64
2023/07/04 05:00:15;;;;;;;12.63;4.32;;;;;;;16.26;99.22;100999.63;5060618;28;20123;-65
2023/07/04 05:02:44;;;;;;;20.20;5.22;;;;;;;16.26;99.99;100998.78;5058265;28;20394;-66
2023/07/04 05:05:13;;;;;;;18.95;5.70;;;;;;;16.26;100.00;101009.78;5043958;28;20121;-64
2023/07/04 05:07:41;;;;;;;17.60;5.00;;;;;;;16.28;100.00;101013.06;5040513;28;20145;-64
2023/07/04 05:10:09;;;;;;;20.83;5.80;;;;;;;16.30;100.00;101008.06;5038849;28;20048;-65
2023/07/04 05:12:38;;;;;;;18.58;5.43;;;;;;;16.30;100.00;101011.63;5024675;28;20061;-65
2023/07/04 05:15:07;;;;;;;17.92;4.65;;;;;;;16.31;100.00;101002.28;5048173;28;20063;-65
2023/07/04 05:17:35;;;;;;;21.77;6.38;;;;;;;16.32;100.00;101008.59;5019320;28;20057;-65
2023/07/04 05:20:05;;;;;;;16.83;4.95;;;;;;;16.34;100.00;101000.88;5053625;28;20041;-65
2023/07/04 05:22:34;;;;;;;16.70;4.85;;;;;;;16.36;100.00;101001.38;4355962;28;10020676;-65
2023/07/04 05:25:02;;;;;;;21.60;5.38;;;;;;;16.37;100.00;101011.25;5033305;28;20057;-65
2023/07/04 05:27:30;;;;;;;18.80;5.88;;;;;;;16.37;100.00;101014.00;5034253;28;20053;-65
2023/07/04 05:29:57;;;;;;;22.45;6.20;;;;;;;16.35;100.00;101014.28;5050201;28;20607;-66
2023/07/04 05:32:25;;;;;;;17.30;5.38;;;;;;;16.34;100.00;101011.88;5051975;28;20053;-65
2023/07/04 05:34:53;;;;;;;14.43;4.78;;;;;;;16.36;100.00;101017.88;5050966;28;20056;-67
2023/07/04 05:37:21;;;;;;;17.17;5.20;;;;;;;16.38;100.00;101023.91;5046862;28;20091;-66
2023/07/04 05:39:51;;;;;;;23.10;5.68;;;;;;;16.38;100.00;101019.22;5015509;28;20080;-66
2023/07/04 05:42:19;;;;;;;20.38;5.20;;;;;;;16.39;100.00;101017.28;5034772;28;20040;-67
2023/07/04 05:44:46;;;;;;;15.85;4.82;;;;;;;16.42;100.00;101021.34;5052671;28;20079;-65
2023/07/04 05:47:14;;;;;;;17.80;5.53;;;;;;;16.43;100.00;101021.06;5048183;28;20424;-66
2023/07/04 05:49:42;;;;;;;19.40;5.03;;;;;;;16.43;100.00;101023.81;5051936;28;20493;-64
2023/07/04 05:52:10;;;;;;;19.05;5.03;;;;;;;16.46;100.00;101030.63;5051583;28;20099;-65
2023/07/04 05:54:38;;;;;;;20.15;5.35;;;;;;;16.53;98.83;101026.38;5048357;28;20061;-66
2023/07/04 05:57:06;;;;;;;19.30;5.43;;;;;;;16.58;99.36;101022.72;5052049;28;20420;-66
2023/07/04 05:59:33;;;;;;;16.08;4.25;;;;;;;16.73;98.02;101024.34;5051959;28;20056;-67
2023/07/04 06:02:01;;;;;;;18.95;5.70;;;;;;;16.84;97.54;101025.81;5052480;28;20779;-65
2023/07/04 06:04:29;;;;;;;24.42;6.68;;;;;;;16.91;96.98;101019.88;5053300;28;20071;-68
2023/07/04 06:06:57;;;;;;;19.42;5.00;;;;;;;16.85;96.69;101027.44;5049417;28;20041;-64
2023/07/04 06:09:25;;;;;;;12.27;3.83;;;;;;;16.90;94.91;101034.78;5051022;28;20049;-65
2023/07/04 06:11:53;;;;;;;17.98;4.95;;;;;;;17.15;94.44;101022.44;5052351;28;20053;-66
2023/07/04 06:14:26;;;;;;;14.45;4.15;;;;;;;17.03;94.45;101031.22;5030976;28;20053;-66
2023/07/04 06:16:55;;;;;;;23.25;5.88;;;;;;;17.10;93.55;101036.31;5049100;28;20053;-65
2023/07/04 06:19:24;;;;;;;19.30;5.95;;;;;;;17.03;93.73;101032.03;5052274;28;20102;-65
2023/07/04 06:21:52;;;;;;;21.20;5.50;;;;;;;16.88;94.99;101048.84;5051274;28;20501;-65
2023/07/04 06:24:20;;;;;;;20.75;5.32;;;;;;;17.01;93.72;101042.53;5034210;28;20584;-64
2023/07/04 06:26:49;;;;;;;24.48;5.28;;;;;;;17.07;92.79;101039.69;5048669;28;20059;-65
2023/07/04 06:29:17;;;;;;;20.58;5.40;;;;;;;17.07;92.82;101045.19;5050601;28;20052;-66
2023/07/04 06:31:47;;;;;;;21.75;5.85;;;;;;;16.88;94.26;101051.59;5052782;28;20049;-65
2023/07/04 06:34:15;;;;;;;23.08;5.72;;;;;;;16.73;95.30;101057.38;5054846;28;20045;-65
2023/07/04 06:36:48;;;;;;;22.00;5.90;;;;;;;16.66;94.59;101052.25;5020461;28;20058;-65
2023/07/04 06:39:16;;;;;;;19.88;4.82;;;;;;;16.66;95.07;101052.25;5016980;28;20044;-66
2023/07/04 06:41:44;;;;;;;22.98;5.68;;;;;;;16.64;95.98;101071.00;5035664;28;20076;-66
2023/07/04 06:44:11;;;;;;;23.70;5.82;;;;;;;16.59;95.22;101074.66;5036256;28;20055;-65
2023/07/04 06:46:41;;;;;;;18.40;5.70;;;;;;;16.61;94.45;101068.84;5037164;28;20042;-64
2023/07/04 06:49:08;;;;;;;16.92;4.65;;;;;;;16.68;95.02;101072.03;5035689;28;20072;-63
2023/07/04 06:51:36;;;;;;;16.65;4.88;;;;;;;16.73;94.49;101082.13;5034343;28;20041;-65
2023/07/04 06:54:04;;;;;;;19.27;5.50;;;;;;;16.77;94.39;101078.47;5035954;28;20110;-64
2023/07/04 06:56:32;;;;;;;14.20;4.47;;;;;;;16.77;92.51;101061.16;5054281;28;20049;-65
2023/07/04 06:59:00;;;;;;;19.63;5.43;;;;;;;16.81;92.96;101078.69;5054061;28;20078;-66
2023/07/04 07:01:27;;;;;;;13.35;4.43;;;;;;;16.86;93.44;101083.28;5054634;28;20051;-65
2023/07/04 07:03:57;;;;;;;19.27;5.45;;;;;;;16.87;93.79;101079.44;5057409;28;20041;-65
2023/07/04 07:06:27;;;;;;;154.45;17.38;;;;;;;16.88;93.16;101087.38;5057442;28;20176;-64
2023/07/04 07:08:55;;;;;;;22.15;4.85;;;;;;;16.91;93.13;101086.78;5058642;28;20060;-65
2023/07/04 07:11:24;;;;;;;34.55;6.53;;;;;;;16.94;92.31;101088.09;5056228;28;20048;-64
2023/07/04 07:13:52;;;;;;;22.52;5.30;;;;;;;16.99;91.90;101088.81;5053828;28;20063;-64
2023/07/04 07:16:23;;;;;;;24.15;5.15;;;;;;;17.03;91.57;101089.84;5035765;28;20045;-65
2023/07/04 07:18:52;;;;;;;25.13;5.68;;;;;;;16.99;89.89;101090.75;5035324;28;20041;-66
2023/07/04 07:21:23;;;;;;;57.83;8.05;;;;;;;16.99;87.79;101088.81;5034936;28;20060;-64
2023/07/04 07:23:52;;;;;;;12.00;4.18;;;;;;;16.97;86.61;101085.56;5034455;28;20053;-66
2023/07/04 07:26:25;;;;;;;16.25;4.75;;;;;;;17.07;87.87;101078.22;5055027;28;20044;-65
2023/07/04 07:28:55;;;;;;;16.52;4.78;;;;;;;17.17;87.96;101078.00;5038415;28;20044;-64
2023/07/04 07:31:25;;;;;;;108.00;12.70;;;;;;;17.16;87.61;101082.72;5021181;28;20056;-66
2023/07/04 07:34:00;;;;;;;26.77;5.97;;;;;;;17.16;87.07;101099.22;5048741;28;20076;-64
2023/07/04 07:36:30;;;;;;;17.85;4.65;;;;;;;17.13;84.63;101096.28;5017744;28;20417;-64
2023/07/04 07:39:00;;;;;;;17.00;4.65;;;;;;;17.19;86.21;101103.31;5035211;28;20075;-63
2023/07/04 07:41:33;;;;;;;15.73;4.78;;;;;;;17.24;85.68;101094.94;5047025;28;20121;-60
2023/07/04 07:44:02;;;;;;;19.85;4.97;;;;;;;17.22;85.74;101088.91;5052008;28;20076;-64
2023/07/04 07:46:29;;;;;;;24.40;5.35;;;;;;;17.23;86.10;101096.06;5023648;28;20120;-65
2023/07/04 07:48:58;;;;;;;17.17;4.97;;;;;;;17.23;85.05;101107.09;5036580;28;20053;-66
2023/07/04 07:51:26;;;;;;;16.02;4.68;;;;;;;17.22;82.41;101105.44;5044653;28;20096;-62
2023/07/04 07:53:55;;;;;;;17.08;4.57;;;;;;;17.24;80.81;101111.47;5037745;28;20136;-65
2023/07/04 07:56:25;;;;;;;14.18;4.28;;;;;;;17.23;79.02;101118.91;5018373;28;20048;-64
2023/07/04 07:58:53;;;;;;;15.57;4.57;;;;;;;17.19;79.23;101106.88;5035993;28;20064;-65
2023/07/04 08:01:24;;;;;;;17.05;4.70;;;;;;;17.26;79.85;101114.72;5034936;28;20071;-66
2023/07/04 08:03:52;;;;;;;12.05;4.40;;;;;;;17.27;80.88;101104.53;5037463;28;20055;-66
2023/07/04 08:06:25;;;;;;;12.65;4.03;;;;;;;17.34;79.86;101105.78;5018518;28;20053;-63
2023/07/04 08:08:54;;;;;;;14.23;3.75;;;;;;;17.37;77.27;101099.63;5036512;28;20049;-66
2023/07/04 08:11:22;;;;;;;17.35;4.45;;;;;;;17.43;76.91;101109.41;5036344;28;20549;-66
2023/07/04 08:13:50;;;;;;;13.73;4.10;;;;;;;17.48;75.00;101107.69;5018063;28;20555;-64
2023/07/04 08:16:21;;;;;;;15.20;3.90;;;;;;;17.57;76.37;101108.59;5016944;28;20037;-65
2023/07/04 08:18:49;;;;;;;18.15;4.35;;;;;;;17.58;75.01;101110.22;5016404;28;20045;-65
2023/07/04 08:21:17;;;;;;;16.25;4.10;;;;;;;17.59;74.65;101120.94;5034205;28;20528;-64
2023/07/04 08:23:45;;;;;;;16.45;4.35;;;;;;;17.56;74.51;101105.03;5035732;28;20121;-65
2023/07/04 08:26:18;;;;;;;17.95;4.10;;;;;;;17.56;74.45;101112.50;5000919;28;20041;-66
2023/07/04 08:28:46;;;;;;;15.88;4.38;;;;;;;17.56;74.67;101120.75;5034060;28;20051;-65
2023/07/04 08:31:17;;;;;;;14.98;4.50;;;;;;;17.56;72.16;101129.81;5032563;28;20053;-66
2023/07/04 08:33:46;;;;;;;16.85;3.90;;;;;;;17.65;72.52;101116.13;5033124;28;20478;-64
2023/07/04 08:36:15;;;;;;;12.32;3.78;;;;;;;17.73;72.89;101118.16;5016926;28;20489;-66
2023/07/04 08:38:45;;;;;;;12.43;3.75;;;;;;;17.84;73.71;101105.00;5032213;28;20049;-65
2023/07/04 08:41:25;;;;;;;11.43;3.63;;;;;;;17.85;73.70;101098.38;5034963;28;20064;-66
2023/07/04 08:44:03;;;;;;;11.90;3.90;;;;;;;17.83;71.52;101095.91;5039577;28;20057;-66
2023/07/04 08:46:39;;;;;;;10.57;4.30;;;;;;;17.90;72.03;101101.00;5052855;28;20059;-65
2023/07/04 08:49:16;;;;;;;15.75;3.95;;;;;;;17.89;70.72;101093.84;5053960;28;20041;-65
2023/07/04 08:51:47;;;;;;;12.85;4.18;;;;;;;17.93;69.20;101100.38;5052990;28;20056;-66
2023/07/04 08:54:15;;;;;;;13.70;3.75;;;;;;;17.97;70.84;101106.09;5031747;28;20057;-66
2023/07/04 08:56:44;;;;;;;17.15;4.43;;;;;;;17.96;68.06;101121.00;5015905;28;20379;-66
2023/07/04 08:59:21;;;;;;;15.68;4.53;;;;;;;17.98;68.29;101118.75;5016403;28;20389;-66
2023/07/04 09:01:58;;;;;;;19.98;3.83;;;;;;;17.96;67.73;101118.25;5033726;28;20056;-65
2023/07/04 09:04:32;;;;;;;14.40;4.10;;;;;;;18.00;66.41;101124.78;5044709;28;20048;-64
2023/07/04 09:07:12;;;;;;;14.38;3.30;;;;;;;18.01;65.32;101120.88;5054118;28;20118;-63
2023/07/04 09:10:04;;;;;;;15.93;3.58;;;;;;;18.00;65.25;101127.53;5056881;28;20057;-65
2023/07/04 09:12:35;;;;;;;18.05;4.95;;;;;;;18.02;64.36;101128.03;5042954;28;20045;-66
2023/07/04 09:15:33;;;;;;;11.85;3.58;;;;;;;18.08;63.88;101130.34;5035772;28;20045;-67
2023/07/04 09:18:14;;;;;;;10.90;3.47;;;;;;;18.18;65.05;101129.28;5019564;28;20050;-66
2023/07/04 09:21:08;;;;;;;11.00;3.80;;;;;;;18.30;65.69;101131.50;5020198;28;20050;-66
2023/07/04 09:23:36;;;;;;;20.40;4.93;;;;;;;18.38;65.11;101136.28;5036455;28;20405;-66
2023/07/04 09:26:05;;;;;;;13.50;3.65;;;;;;;18.40;62.30;101147.81;5035889;28;20367;-66
2023/07/04 09:28:34;;;;;;;15.23;3.50;;;;;;;18.40;61.36;101155.25;5035608;28;20117;-66
2023/07/04 09:31:02;;;;;;;11.65;3.53;;;;;;;18.40;58.49;101149.75;5035324;28;20067;-64
2023/07/04 09:33:32;;;;;;;13.43;3.95;;;;;;;18.42;60.82;101156.59;5019613;28;20050;-64
2023/07/04 09:36:00;;;;;;;11.40;3.30;;;;;;;18.42;56.54;101167.63;5002964;28;20057;-65
2023/07/04 09:38:54;;;;;;;14.63;3.60;;;;;;;18.45;56.20;101164.25;5034869;28;20423;-66
2023/07/04 09:41:27;;;;;;;13.80;3.83;;;;;;;18.50;56.59;101168.84;5036036;28;20045;-65
2023/07/04 09:43:56;;;;;;;14.80;4.15;;;;;;;18.55;56.76;101163.19;5035770;28;20041;-64
2023/07/04 09:46:28;;;;;;;15.65;3.47;;;;;;;18.60;56.82;101168.56;5003069;28;20508;-65
2023/07/04 09:49:20;;;;;;;14.95;3.70;;;;;;;18.62;56.59;101166.31;5041473;28;20154;-64
2023/07/04 09:52:05;;;;;;;20.35;3.72;;;;;;;18.60;58.61;101160.31;5055360;28;20049;-65
2023/07/04 09:54:34;;;;;;;12.83;3.77;;;;;;;18.62;57.49;101155.28;5038288;28;20413;-65
2023/07/04 09:57:26;;;;;;;12.15;3.20;;;;;;;18.63;57.23;101156.91;5056132;28;20489;-65
2023/07/04 09:59:55;;;;;;;9.93;3.28;;;;;;;18.67;57.11;101157.91;5054442;28;20049;-66
2023/07/04 10:02:32;;;;;;;15.25;3.45;;;;;;;18.66;56.66;101156.28;5054691;28;20456;-64
2023/07/04 10:05:01;;;;;;;13.40;3.75;;;;;;;18.72;56.46;101154.22;5054555;28;20044;-64
2023/07/04 10:07:28;;;;;;;10.95;3.50;;;;;;;18.76;57.06;101154.38;5055470;28;20048;-65
2023/07/04 10:10:01;;;;;;;17.60;4.13;;;;;;;18.86;57.34;101154.19;5022367;28;20042;-66
2023/07/04 10:12:44;;;;;;;11.10;3.45;;;;;;;18.93;55.02;101155.34;5035372;28;20053;-66
2023/07/04 10:15:24;;;;;;;17.10;3.63;;;;;;;19.01;56.37;101161.25;5034894;28;20049;-65
2023/07/04 10:17:52;;;;;;;11.80;3.60;;;;;;;19.05;54.35;101162.22;5034934;28;20567;-65
2023/07/04 10:20:20;;;;;;;14.23;4.00;;;;;;;19.10;56.19;101153.81;5036613;28;20045;-66
2023/07/04 10:22:52;;;;;;;10.95;3.22;;;;;;;19.13;55.74;101156.75;5044089;28;20397;-65
2023/07/04 10:25:22;;;;;;;12.50;3.70;;;;;;;19.16;54.15;101158.06;5055649;28;20064;-65
2023/07/04 10:27:54;;;;;;;11.00;3.53;;;;;;;19.10;53.38;101149.09;5054841;28;20048;-66
2023/07/04 10:30:29;;;;;;;9.88;3.63;;;;;;;19.08;56.12;101145.84;5054639;28;20408;-65
2023/07/04 10:33:04;;;;;;;11.00;3.33;;;;;;;19.12;55.88;101146.84;5038712;28;20501;-65
2023/07/04 10:35:34;;;;;;;11.65;4.00;;;;;;;19.19;55.41;101151.06;5054027;28;20053;-65
2023/07/04 10:38:06;;;;;;;11.60;3.53;;;;;;;19.26;55.24;101157.75;5053837;28;20493;-65
2023/07/04 10:40:38;;;;;;;11.45;3.53;;;;;;;19.26;55.25;101154.19;5036235;28;20053;-65
2023/07/04 10:43:10;;;;;;;8.85;3.25;;;;;;;19.34;57.30;101158.97;5033759;28;20049;-65
2023/07/04 10:45:41;;;;;;;12.05;3.25;;;;;;;19.40;55.68;101146.59;5017905;28;20401;-66
2023/07/04 10:48:22;;;;;;;13.63;4.05;;;;;;;19.45;54.76;101156.72;5041844;28;20041;-65
2023/07/04 10:50:58;;;;;;;11.57;3.88;;;;;;;19.50;55.11;101151.03;5054842;28;20041;-65
2023/07/04 10:53:27;;;;;;;12.77;3.55;;;;;;;19.52;54.74;101154.28;5021182;28;20045;-65
2023/07/04 10:56:04;;;;;;;8.38;3.22;;;;;;;19.57;53.43;101166.00;5054586;28;20078;-65
2023/07/04 10:58:36;;;;;;;10.80;3.38;;;;;;;19.57;51.76;101163.25;5050070;28;20042;-65
2023/07/04 11:01:21;;;;;;;10.25;3.20;;;;;;;19.58;51.90;101164.88;5034346;28;20512;-64
2023/07/04 11:04:04;;;;;;;13.35;3.55;;;;;;;19.49;51.90;101161.28;5035314;28;20053;-65
2023/07/04 11:06:40;;;;;;;9.68;3.00;;;;;;;19.45;51.94;101160.28;5034625;28;20053;-65
2023/07/04 11:09:16;;;;;;;9.75;3.30;;;;;;;19.41;52.32;101172.28;5036032;28;20041;-66
2023/07/04 11:11:48;;;;;;;13.40;3.30;;;;;;;19.38;51.88;101168.22;5055946;28;20170;-65
2023/07/04 11:14:25;;;;;;;11.63;3.40;;;;;;;19.42;52.21;101173.94;5040432;28;20051;-65
2023/07/04 11:16:56;;;;;;;10.45;3.10;;;;;;;19.51;52.92;101164.53;5058048;28;20044;-65
2023/07/04 11:19:30;;;;;;;10.20;3.03;;;;;;;19.56;51.85;101156.09;5041451;28;20099;-63
2023/07/04 11:22:02;;;;;;;11.05;3.30;;;;;;;19.59;51.73;101151.88;5034342;28;20041;-66
2023/07/04 11:24:51;;;;;;;11.73;3.70;;;;;;;19.62;52.30;101155.94;5034267;28;20049;-66
2023/07/04 11:27:24;;;;;;;10.23;3.38;;;;;;;19.60;51.55;101159.03;5034910;28;20045;-65
2023/07/04 11:29:54;;;;;;;9.85;3.20;;;;;;;19.61;51.27;101157.09;5034407;28;20099;-65
2023/07/04 11:32:37;;;;;;;14.40;3.38;;;;;;;19.61;51.66;101162.63;5034696;28;20060;-65
2023/07/04 11:35:11;;;;;;;11.43;3.28;;;;;;;19.66;51.08;101159.72;5033497;28;20091;-63